createdAt,value
2022-11-17T00:02:30.867Z,98338.50
2022-11-17T00:05:00.980Z,98338.34
2022-11-17T00:07:31.256Z,98340.69
2022-11-17T00:10:01.393Z,98335.56
2022-11-17T00:12:43.844Z,98340.69
2022-11-17T00:15:14.126Z,98338.03
2022-11-17T00:17:49.088Z,98333.59
2022-11-17T00:20:31.709Z,98332.41
2022-11-17T00:23:01.760Z,98334.22
2022-11-17T00:25:31.927Z,98342.13
2022-11-17T00:28:02.017Z,98349.22
2022-11-17T00:30:45.063Z,98345.94
2022-11-17T00:33:30.067Z,98342.13
2022-11-17T00:36:00.144Z,98350.22
2022-11-17T00:38:30.218Z,98344.28
2022-11-17T00:41:00.335Z,98341.66
2022-11-17T00:43:30.424Z,98332.78
2022-11-17T00:46:00.533Z,98334.41
2022-11-17T00:48:33.279Z,98342.97
2022-11-17T00:51:06.615Z,98339.34
2022-11-17T00:53:36.976Z,98338.88
2022-11-17T00:56:08.148Z,98329.47
2022-11-17T00:58:38.926Z,98331.44
2022-11-17T01:01:09.508Z,98335.72
2022-11-17T01:03:42.606Z,98327.97
2022-11-17T01:06:14.696Z,98329.94
2022-11-17T01:08:45.084Z,98338.31
2022-11-17T01:11:17.386Z,98335.84
2022-11-17T01:13:49.556Z,98337.34
2022-11-17T01:16:21.858Z,98331.56
2022-11-17T01:18:55.595Z,98333.72
2022-11-17T01:21:27.868Z,98328.44
2022-11-17T01:23:59.947Z,98328.59
2022-11-17T01:26:32.324Z,98330.25
2022-11-17T01:29:03.345Z,98325.13
2022-11-17T01:31:35.567Z,98318.03
2022-11-17T01:34:08.629Z,98328.75
2022-11-17T01:36:52.415Z,98315.25
2022-11-17T01:39:23.140Z,98316.25
2022-11-17T01:41:54.090Z,98310.28
2022-11-17T01:45:09.096Z,98308.50
2022-11-17T01:47:45.211Z,98316.25
2022-11-17T01:50:29.353Z,98306.53
2022-11-17T01:53:00.322Z,98307.22
2022-11-17T01:55:34.992Z,98309.84
2022-11-17T01:58:11.452Z,98308.34
2022-11-17T02:00:41.887Z,98313.78
2022-11-17T02:03:12.284Z,98310.63
2022-11-17T02:05:52.564Z,98313.13
2022-11-17T02:08:25.805Z,98305.16
2022-11-17T02:10:56.592Z,98308.63
2022-11-17T02:13:27.464Z,98303.03
2022-11-17T02:15:57.557Z,98311.91
2022-11-17T02:18:27.875Z,98312.91
2022-11-17T02:21:23.675Z,98296.28
2022-11-17T02:24:20.730Z,98293.00
2022-11-17T02:27:32.791Z,98284.94
2022-11-17T02:30:08.852Z,98283.78
2022-11-17T02:32:48.909Z,98287.75
2022-11-17T02:35:27.699Z,98280.50
2022-11-17T02:38:09.804Z,98275.56
2022-11-17T02:40:46.460Z,98273.59
2022-11-17T02:43:33.673Z,98275.72
2022-11-17T02:46:10.547Z,98277.69
2022-11-17T02:48:44.637Z,98282.66
2022-11-17T02:51:23.325Z,98279.34
2022-11-17T02:53:56.081Z,98289.22
2022-11-17T02:56:26.432Z,98287.59
2022-11-17T02:59:00.560Z,98294.88
2022-11-17T03:01:48.303Z,98295.84
2022-11-17T03:04:30.923Z,98297.84
2022-11-17T03:07:23.269Z,98303.94
2022-11-17T03:10:04.556Z,98300.81
2022-11-17T03:12:40.379Z,98300.75
2022-11-17T03:15:20.190Z,98298.59
2022-11-17T03:17:59.314Z,98294.00
2022-11-17T03:20:35.109Z,98298.81
2022-11-17T03:23:10.435Z,98295.34
2022-11-17T03:25:43.848Z,98304.06
2022-11-17T03:28:15.344Z,98307.38
2022-11-17T03:30:48.656Z,98309.34
2022-11-17T03:33:25.686Z,98299.13
2022-11-17T03:36:00.836Z,98307.97
2022-11-17T03:38:35.313Z,98299.91
2022-11-17T03:41:08.078Z,98282.44
2022-11-17T03:43:39.021Z,98296.00
2022-11-17T03:46:13.033Z,98305.06
2022-11-17T03:48:47.665Z,98301.56
2022-11-17T03:51:21.412Z,98291.69
2022-11-17T03:53:52.520Z,98292.50
2022-11-17T03:56:33.558Z,98295.47
2022-11-17T03:59:06.082Z,98302.56
2022-11-17T04:01:37.930Z,98307.19
2022-11-17T04:04:15.675Z,98306.50
2022-11-17T04:06:45.907Z,98296.47
2022-11-17T04:09:21.302Z,98296.13
2022-11-17T04:12:06.798Z,98300.41
2022-11-17T04:14:58.302Z,98306.16
2022-11-17T04:17:28.596Z,98299.44
2022-11-17T04:20:01.898Z,98300.25
2022-11-17T04:22:32.085Z,98301.25
2022-11-17T04:25:02.226Z,98298.59
2022-11-17T04:27:44.709Z,98296.13
2022-11-17T04:30:15.456Z,98303.88
2022-11-17T04:32:47.530Z,98305.69
2022-11-17T04:35:20.408Z,98306.19
2022-11-17T04:37:50.524Z,98297.47
2022-11-17T04:40:21.039Z,98298.13
2022-11-17T04:42:48.507Z,98299.28
2022-11-17T04:45:18.658Z,98300.25
2022-11-17T04:47:48.939Z,98292.03
2022-11-17T04:50:21.767Z,98299.44
2022-11-17T04:52:51.869Z,98297.31
2022-11-17T04:55:22.091Z,98291.38
2022-11-17T04:57:52.232Z,98281.50
2022-11-17T05:00:22.838Z,98282.00
2022-11-17T05:02:52.948Z,98281.50
2022-11-17T05:05:25.737Z,98282.84
2022-11-17T05:07:55.817Z,98284.81
2022-11-17T05:10:41.438Z,98277.88
2022-11-17T05:13:25.674Z,98285.94
2022-11-17T05:16:08.614Z,98282.84
2022-11-17T05:18:38.874Z,98286.97
2022-11-17T05:21:13.092Z,98293.88
2022-11-17T05:23:55.608Z,98302.44
2022-11-17T05:26:27.797Z,98294.88
2022-11-17T05:28:59.890Z,98300.81
2022-11-17T05:31:32.069Z,98303.44
2022-11-17T05:34:02.500Z,98307.72
2022-11-17T05:36:35.883Z,98305.09
2022-11-17T05:39:06.639Z,98300.81
2022-11-17T05:41:37.402Z,98309.38
2022-11-17T05:44:08.333Z,98325.84
2022-11-17T05:46:38.500Z,98340.00
2022-11-17T05:49:08.677Z,98340.00
2022-11-17T05:51:41.454Z,98340.47
2022-11-17T05:54:11.713Z,98345.44
2022-11-17T05:56:45.317Z,98349.88
2022-11-17T05:59:27.867Z,98355.31
2022-11-17T06:02:03.361Z,98364.34
2022-11-17T06:04:33.779Z,98366.00
2022-11-17T06:07:06.704Z,98375.88
2022-11-17T06:09:39.507Z,98375.19
2022-11-17T06:12:12.461Z,98379.47
2022-11-17T06:14:42.577Z,98367.81
2022-11-17T06:17:22.156Z,98361.66
2022-11-17T06:19:57.170Z,98365.47
2022-11-17T06:22:30.470Z,98367.66
2022-11-17T06:25:01.550Z,98378.50
2022-11-17T06:27:34.843Z,98378.34
2022-11-17T06:30:07.146Z,98371.44
2022-11-17T06:32:40.351Z,98369.78
2022-11-17T06:35:13.036Z,98378.66
2022-11-17T06:37:45.905Z,98385.72
2022-11-17T06:40:16.127Z,98382.13
2022-11-17T06:42:58.653Z,98389.88
2022-11-17T06:45:29.187Z,98394.78
2022-11-17T06:47:59.307Z,98391.16
2022-11-17T06:50:29.594Z,98388.22
2022-11-17T06:53:04.176Z,98386.72
2022-11-17T06:55:34.666Z,98367.09
2022-11-17T06:58:11.741Z,98387.91
2022-11-17T07:00:42.125Z,98385.25
2022-11-17T07:03:13.331Z,98380.50
2022-11-17T07:05:43.582Z,98382.13
2022-11-17T07:08:19.226Z,98379.38
2022-11-17T07:10:54.743Z,98372.78
2022-11-17T07:13:26.399Z,98365.25
2022-11-17T07:15:56.631Z,98370.53
2022-11-17T07:18:27.013Z,98365.44
2022-11-17T07:20:57.407Z,98364.16
2022-11-17T07:23:30.250Z,98358.41
2022-11-17T07:26:00.490Z,98362.69
2022-11-17T07:28:31.616Z,98368.28
2022-11-17T07:31:04.962Z,98360.91
2022-11-17T07:33:35.621Z,98357.47
2022-11-17T07:36:06.740Z,98357.31
2022-11-17T07:38:40.941Z,98365.88
2022-11-17T07:41:12.892Z,98371.34
2022-11-17T07:43:43.454Z,98369.50
2022-11-17T07:46:16.034Z,98377.75
2022-11-17T07:48:46.555Z,98378.44
2022-11-17T07:51:17.649Z,98378.75
2022-11-17T07:53:50.518Z,98386.50
2022-11-17T07:56:21.706Z,98387.16
2022-11-17T07:58:51.868Z,98394.25
2022-11-17T08:01:27.629Z,98395.75
2022-11-17T08:03:58.830Z,98403.00
2022-11-17T08:06:30.316Z,98402.84
2022-11-17T08:09:03.133Z,98407.78
2022-11-17T08:11:34.876Z,98410.59
2022-11-17T08:14:05.263Z,98412.25
2022-11-17T08:16:35.653Z,98410.13
2022-11-17T08:19:06.437Z,98417.69
2022-11-17T08:21:41.247Z,98402.84
2022-11-17T08:24:15.175Z,98420.50
2022-11-17T08:26:45.021Z,98416.72
2022-11-17T08:29:15.231Z,98426.59
2022-11-17T08:31:46.456Z,98427.59
2022-11-17T08:34:17.593Z,98437.69
2022-11-17T08:36:47.699Z,98437.97
2022-11-17T08:39:20.728Z,98445.09
2022-11-17T08:41:50.855Z,98449.53
2022-11-17T08:44:20.965Z,98453.16
2022-11-17T08:46:51.140Z,98448.06
2022-11-17T08:49:21.940Z,98444.41
2022-11-17T08:51:52.033Z,98452.69
2022-11-17T08:54:27.974Z,98458.97
2022-11-17T08:57:00.639Z,98462.25
2022-11-17T08:59:30.853Z,98459.47
2022-11-17T09:02:01.294Z,98460.28
2022-11-17T09:04:31.522Z,98461.94
2022-11-17T09:07:01.628Z,98471.16
2022-11-17T09:09:36.394Z,98468.72
2022-11-17T09:12:06.857Z,98469.16
2022-11-17T09:14:37.018Z,98462.56
2022-11-17T09:17:07.241Z,98456.94
2022-11-17T09:19:37.322Z,98464.88
2022-11-17T09:22:07.426Z,98466.72
2022-11-17T09:24:40.290Z,98472.16
2022-11-17T09:27:10.384Z,98468.19
2022-11-17T09:29:40.659Z,98472.47
2022-11-17T09:32:10.768Z,98469.31
2022-11-17T09:34:41.021Z,98460.41
2022-11-17T09:37:11.174Z,98458.59
2022-11-17T09:39:44.170Z,98462.56
2022-11-17T09:42:17.106Z,98468.63
2022-11-17T09:44:52.876Z,98465.69
2022-11-17T09:47:40.802Z,98469.50
2022-11-17T09:50:22.464Z,98468.63
2022-11-17T09:53:01.170Z,98462.16
2022-11-17T09:55:38.605Z,98462.50
2022-11-17T09:58:21.796Z,98466.56
2022-11-17T10:00:53.134Z,98460.13
2022-11-17T10:03:25.307Z,98462.09
2022-11-17T10:05:56.293Z,98462.16
2022-11-17T10:08:36.525Z,98458.88
2022-11-17T10:11:26.974Z,98459.03
2022-11-17T10:13:57.151Z,98453.56
2022-11-17T10:16:28.359Z,98459.53
2022-11-17T10:18:58.613Z,98463.66
2022-11-17T10:21:32.603Z,98466.63
2022-11-17T10:24:10.066Z,98474.22
2022-11-17T10:26:52.554Z,98461.44
2022-11-17T10:29:25.938Z,98461.75
2022-11-17T10:31:55.994Z,98461.81
2022-11-17T10:34:41.410Z,98461.41
2022-11-17T10:37:31.827Z,98473.63
2022-11-17T10:40:26.740Z,98464.66
2022-11-17T10:43:19.818Z,98458.56
2022-11-17T10:45:52.067Z,98457.50
2022-11-17T10:48:28.156Z,98451.06
2022-11-17T10:50:59.808Z,98450.41
2022-11-17T10:53:43.498Z,98447.59
2022-11-17T10:56:19.081Z,98451.59
2022-11-17T10:59:05.878Z,98453.69
2022-11-17T11:01:47.488Z,98460.19
2022-11-17T11:04:35.545Z,98473.81
2022-11-17T11:07:14.727Z,98470.88
2022-11-17T11:09:51.330Z,98465.13
2022-11-17T11:12:27.510Z,98464.34
2022-11-17T11:15:03.411Z,98475.56
2022-11-17T11:17:33.709Z,98475.78
2022-11-17T11:20:04.343Z,98475.69
2022-11-17T11:22:39.691Z,98478.16
2022-11-17T11:25:23.939Z,98482.91
2022-11-17T11:28:08.526Z,98480.25
2022-11-17T11:30:56.943Z,98477.19
2022-11-17T11:33:37.282Z,98472.47
2022-11-17T11:36:19.535Z,98479.72
2022-11-17T11:38:59.912Z,98475.25
2022-11-17T11:41:48.702Z,98477.91
2022-11-17T11:44:35.338Z,98477.41
2022-11-17T11:47:29.275Z,98473.00
2022-11-17T11:50:06.338Z,98471.38
2022-11-17T11:52:41.533Z,98484.44
2022-11-17T11:55:22.379Z,98479.44
2022-11-17T11:57:58.513Z,98485.19
2022-11-17T12:00:29.125Z,98487.66
2022-11-17T12:03:08.260Z,98490.97
2022-11-17T12:05:48.198Z,98481.88
2022-11-17T12:08:31.393Z,98480.41
2022-11-17T12:11:25.980Z,98490.63
2022-11-17T12:13:57.271Z,98497.03
2022-11-17T12:16:34.710Z,98500.84
2022-11-17T12:19:42.590Z,98496.53
2022-11-17T12:22:13.294Z,98501.75
2022-11-17T12:24:44.636Z,98496.97
2022-11-17T12:27:46.004Z,98499.13
2022-11-17T12:30:45.946Z,98488.53
2022-11-17T12:33:16.045Z,98504.94
2022-11-17T12:35:48.721Z,98502.72
2022-11-17T12:38:44.419Z,98509.97
2022-11-17T12:41:14.734Z,98508.69
2022-11-17T12:43:45.390Z,98513.38
2022-11-17T12:46:36.117Z,98506.34
2022-11-17T12:49:16.254Z,98511.59
2022-11-17T12:51:58.433Z,98512.28
2022-11-17T12:54:37.956Z,98510.47
2022-11-17T12:57:12.936Z,98521.63
2022-11-17T13:00:07.855Z,98529.22
2022-11-17T13:03:10.930Z,98529.88
2022-11-17T13:05:41.234Z,98532.03
2022-11-17T13:08:24.905Z,98527.38
2022-11-17T13:11:07.340Z,98527.50
2022-11-17T13:13:39.435Z,98529.91
2022-11-17T13:16:20.049Z,98539.84
2022-11-17T13:18:51.754Z,98533.56
2022-11-17T13:21:32.806Z,98539.56
2022-11-17T13:24:05.613Z,98548.81
2022-11-17T13:26:38.191Z,98544.00
2022-11-17T13:29:12.770Z,98538.88
2022-11-17T13:31:43.266Z,98547.63
2022-11-17T13:34:21.414Z,98550.91
2022-11-17T13:36:59.588Z,98558.00
2022-11-17T13:39:32.469Z,98556.88
2022-11-17T13:42:05.351Z,98554.81
2022-11-17T13:44:36.721Z,98552.44
2022-11-17T13:47:21.484Z,98559.19
2022-11-17T13:49:52.206Z,98562.75
2022-11-17T13:52:42.004Z,98564.25
2022-11-17T13:55:24.987Z,98572.44
2022-11-17T13:57:59.663Z,98569.03
2022-11-17T14:00:31.029Z,98574.41
2022-11-17T14:03:07.193Z,98577.13
2022-11-17T14:05:37.273Z,98573.53
2022-11-17T14:08:27.276Z,98576.88
2022-11-17T14:11:21.463Z,98584.38
2022-11-17T14:13:58.974Z,98583.97
2022-11-17T14:16:31.225Z,98585.63
2022-11-17T14:19:09.575Z,98592.16
2022-11-17T14:21:39.765Z,98589.72
2022-11-17T14:24:15.080Z,98589.03
2022-11-17T14:26:48.210Z,98602.06
2022-11-17T14:29:18.505Z,98588.16
2022-11-17T14:31:48.742Z,98588.31
2022-11-17T14:34:18.921Z,98592.34
2022-11-17T14:36:50.880Z,98602.03
2022-11-17T14:39:21.579Z,98591.13
2022-11-17T14:41:54.403Z,98600.53
2022-11-17T14:44:24.863Z,98602.63
2022-11-17T14:46:55.087Z,98603.38
2022-11-17T14:49:25.344Z,98604.50
2022-11-17T14:51:59.294Z,98609.47
2022-11-17T14:54:29.611Z,98613.06
2022-11-17T14:57:02.374Z,98615.84
2022-11-17T14:59:32.590Z,98622.66
2022-11-17T15:02:02.788Z,98618.91
2022-11-17T15:04:50.108Z,98607.16
2022-11-17T15:07:23.705Z,98613.16
2022-11-17T15:09:54.138Z,98611.75
2022-11-17T15:12:28.001Z,98605.81
2022-11-17T15:14:58.399Z,98603.16
2022-11-17T15:17:29.841Z,98591.06
2022-11-17T15:19:59.976Z,98597.97
2022-11-17T15:22:30.790Z,98594.66
2022-11-17T15:25:00.942Z,98591.50
2022-11-17T15:27:33.760Z,98603.94
2022-11-17T15:30:04.035Z,98598.53
2022-11-17T15:32:34.259Z,98595.09
2022-11-17T15:35:04.383Z,98605.06
2022-11-17T15:37:34.579Z,98603.25
2022-11-17T15:40:04.921Z,98602.84
2022-11-17T15:42:37.773Z,98599.09
2022-11-17T15:45:09.401Z,98603.53
2022-11-17T15:47:39.582Z,98607.25
2022-11-17T15:50:11.345Z,98594.53
2022-11-17T15:53:02.883Z,98592.59
2022-11-17T15:55:31.528Z,98594.53
2022-11-17T15:58:04.470Z,98586.25
2022-11-17T16:00:36.160Z,98586.00
2022-11-17T16:03:08.626Z,98579.16
2022-11-17T16:05:38.881Z,98578.75
2022-11-17T16:08:09.078Z,98586.50
2022-11-17T16:10:39.478Z,98593.03
2022-11-17T16:13:12.417Z,98578.09
2022-11-17T16:15:42.679Z,98586.78
2022-11-17T16:18:12.868Z,98580.03
2022-11-17T16:20:43.113Z,98575.19
2022-11-17T16:23:13.904Z,98587.50
2022-11-17T16:25:47.596Z,98604.50
2022-11-17T16:28:20.336Z,98604.22
2022-11-17T16:30:50.441Z,98607.53
2022-11-17T16:33:20.747Z,98607.53
2022-11-17T16:35:51.102Z,98602.44
2022-11-17T16:38:21.328Z,98606.28
2022-11-17T16:40:51.706Z,98612.25
2022-11-17T16:43:26.522Z,98619.16
2022-11-17T16:45:56.655Z,98618.19
2022-11-17T16:48:31.127Z,98615.84
2022-11-17T16:51:01.294Z,98622.63
2022-11-17T16:53:31.444Z,98629.50
2022-11-17T16:56:06.535Z,98625.91
2022-11-17T16:58:39.496Z,98629.50
2022-11-17T17:01:14.311Z,98627.56
2022-11-17T17:03:45.907Z,98636.97
2022-11-17T17:06:18.483Z,98636.69
2022-11-17T17:08:48.732Z,98642.66
2022-11-17T17:11:20.295Z,98639.59
2022-11-17T17:13:53.294Z,98622.84
2022-11-17T17:16:23.717Z,98600.03
2022-11-17T17:18:59.614Z,98609.19
2022-11-17T17:21:31.560Z,98618.56
2022-11-17T17:24:02.464Z,98618.72
2022-11-17T17:26:34.470Z,98630.06
2022-11-17T17:29:08.641Z,98623.84
2022-11-17T17:31:41.161Z,98616.78
2022-11-17T17:34:14.051Z,98611.25
2022-11-17T17:36:44.479Z,98612.34
2022-11-17T17:39:17.661Z,98601.19
2022-11-17T17:41:48.083Z,98606.88
2022-11-17T17:44:23.674Z,98608.50
2022-11-17T17:46:53.907Z,98610.97
2022-11-17T17:49:24.186Z,98617.75
2022-11-17T17:51:54.215Z,98620.16
2022-11-17T17:54:26.306Z,98625.91
2022-11-17T17:56:57.835Z,98627.06
2022-11-17T17:59:30.642Z,98634.22
2022-11-17T18:02:00.740Z,98642.78
2022-11-17T18:04:31.050Z,98641.53
2022-11-17T18:07:01.702Z,98643.47
2022-11-17T18:09:31.964Z,98633.94
2022-11-17T18:12:02.065Z,98620.66
2022-11-17T18:14:34.847Z,98651.50
2022-11-17T18:17:05.186Z,98654.25
2022-11-17T18:19:35.753Z,98648.03
2022-11-17T18:22:05.989Z,98663.53
2022-11-17T18:24:36.157Z,98664.34
2022-11-17T18:27:09.337Z,98658.97
2022-11-17T18:29:42.190Z,98660.63
2022-11-17T18:32:14.790Z,98668.22
2022-11-17T18:34:44.985Z,98668.50
2022-11-17T18:37:18.316Z,98663.06
2022-11-17T18:39:48.774Z,98673.44
2022-11-17T18:42:18.939Z,98672.38
2022-11-17T18:44:51.650Z,98669.88
2022-11-17T18:47:21.792Z,98672.09
2022-11-17T18:49:52.066Z,98660.59
2022-11-17T18:52:24.880Z,98665.03
2022-11-17T18:55:00.645Z,98668.50
2022-11-17T18:57:30.833Z,98658.25
2022-11-17T19:00:03.946Z,98652.19
2022-11-17T19:02:36.046Z,98642.09
2022-11-17T19:05:06.397Z,98651.22
2022-11-17T19:07:36.790Z,98641.94
2022-11-17T19:10:07.930Z,98631.47
2022-11-17T19:12:38.101Z,98627.47
2022-11-17T19:15:11.361Z,98638.38
2022-11-17T19:17:41.563Z,98635.06
2022-11-17T19:20:13.949Z,98642.38
2022-11-17T19:22:44.788Z,98647.63
2022-11-17T19:25:15.162Z,98660.06
2022-11-17T19:27:48.905Z,98659.38
2022-11-17T19:30:22.516Z,98643.47
2022-11-17T19:32:53.003Z,98646.38
2022-11-17T19:35:23.435Z,98644.03
2022-11-17T19:37:54.066Z,98645.97
2022-11-17T19:40:24.497Z,98650.25
2022-11-17T19:42:58.046Z,98653.03
2022-11-17T19:45:33.880Z,98645.97
2022-11-17T19:48:04.360Z,98649.28
2022-11-17T19:50:35.075Z,98643.22
2022-11-17T19:53:05.391Z,98639.34
2022-11-17T19:55:37.091Z,98631.59
2022-11-17T19:58:07.725Z,98635.19
2022-11-17T20:00:40.802Z,98632.72
2022-11-17T20:03:11.001Z,98624.84
2022-11-17T20:05:41.727Z,98630.66
2022-11-17T20:08:12.174Z,98624.44
2022-11-17T20:10:42.455Z,98629.28
2022-11-17T20:13:12.692Z,98629.41
2022-11-17T20:15:45.504Z,98633.97
2022-11-17T20:18:15.723Z,98632.03
2022-11-17T20:20:45.913Z,98627.06
2022-11-17T20:23:16.060Z,98626.09
2022-11-17T20:25:46.198Z,98625.81
2022-11-17T20:28:16.291Z,98629.13
2022-11-17T20:30:49.094Z,98618.63
2022-11-17T20:33:19.187Z,98618.22
2022-11-17T20:35:49.273Z,98633.28
2022-11-17T20:38:19.850Z,98618.22
2022-11-17T20:40:50.027Z,98625.53
2022-11-17T20:43:20.060Z,98632.31
2022-11-17T20:45:56.406Z,98632.19
2022-11-17T20:48:29.193Z,98630.66
2022-11-17T20:51:00.612Z,98634.66
2022-11-17T20:53:33.482Z,98629.56
2022-11-17T20:56:06.163Z,98629.13
2022-11-17T20:58:37.362Z,98631.63
2022-11-17T21:01:15.023Z,98620.16
2022-11-17T21:03:45.722Z,98630.25
2022-11-17T21:06:16.893Z,98629.13
2022-11-17T21:08:47.921Z,98623.75
2022-11-17T21:11:39.620Z,98627.34
2022-11-17T21:14:11.510Z,98604.94
2022-11-17T21:16:46.486Z,98615.31
2022-11-17T21:19:17.392Z,98605.22
2022-11-17T21:21:48.435Z,98608.53
2022-11-17T21:24:18.558Z,98598.31
2022-11-17T21:26:49.071Z,98601.63
2022-11-17T21:29:19.416Z,98607.31
2022-11-17T21:31:52.476Z,98610.22
2022-11-17T21:34:22.554Z,98616.44
2022-11-17T21:36:52.710Z,98595.16
2022-11-17T21:39:23.082Z,98605.81
2022-11-17T21:41:53.280Z,98607.72
2022-11-17T21:44:23.346Z,98606.63
2022-11-17T21:46:56.222Z,98618.63
2022-11-17T21:49:26.450Z,98614.22
2022-11-17T21:51:56.884Z,98613.50
2022-11-17T21:54:27.055Z,98620.84
2022-11-17T21:56:57.203Z,98621.38
2022-11-17T21:59:27.432Z,98621.66
2022-11-17T22:02:00.346Z,98618.91
2022-11-17T22:04:30.507Z,98622.22
2022-11-17T22:07:00.813Z,98617.13
2022-11-17T22:09:30.960Z,98612.69
2022-11-17T22:12:01.476Z,98614.34
2022-11-17T22:14:31.669Z,98606.19
2022-11-17T22:17:04.490Z,98609.53
2022-11-17T22:19:34.809Z,98598.47
2022-11-17T22:22:06.143Z,98603.59
2022-11-17T22:24:38.771Z,98608.28
2022-11-17T22:27:09.924Z,98608.97
2022-11-17T22:29:40.040Z,98602.06
2022-11-17T22:32:12.890Z,98590.03
2022-11-17T22:34:43.328Z,98591.00
2022-11-17T22:37:13.468Z,98585.91
2022-11-17T22:39:43.606Z,98593.63
2022-11-17T22:42:14.434Z,98596.94
2022-11-17T22:44:44.517Z,98605.50
2022-11-17T22:47:17.309Z,98605.25
2022-11-17T22:49:47.415Z,98598.91
2022-11-17T22:52:17.529Z,98596.28
2022-11-17T22:54:47.601Z,98597.50
2022-11-17T22:57:17.743Z,98611.19
2022-11-17T22:59:48.047Z,98608.56
2022-11-17T23:02:20.971Z,98600.97
2022-11-17T23:04:51.129Z,98600.13
2022-11-17T23:07:21.269Z,98596.41
2022-11-17T23:09:51.724Z,98602.06
2022-11-17T23:12:21.974Z,98600.53
2022-11-17T23:14:52.125Z,98600.81
2022-11-17T23:17:24.917Z,98604.94
2022-11-17T23:19:55.038Z,98592.38
2022-11-17T23:22:25.761Z,98581.75
2022-11-17T23:24:55.728Z,98593.22
2022-11-17T23:27:25.880Z,98577.06
2022-11-17T23:29:56.183Z,98582.72
2022-11-17T23:32:29.050Z,98572.38
2022-11-17T23:34:59.210Z,98564.75
2022-11-17T23:37:30.921Z,98561.19
2022-11-17T23:40:01.090Z,98572.63
2022-11-17T23:42:32.622Z,98571.66
2022-11-17T23:45:06.553Z,98572.59
2022-11-17T23:47:39.241Z,98575.63
2022-11-17T23:50:10.934Z,98565.13
2022-11-17T23:52:41.025Z,98561.69
2022-11-17T23:55:11.693Z,98556.31
2022-11-17T23:57:41.899Z,98551.91
